This is the latest recevied weather packets stored in our database for station/object SR7U-1. If no packets are shown the sender has not sent any weather packets the latest 10 day(s).
| Time | Temp. | Humidity | Pressure | Rain* | Wind** | Luminosity | Snow |
|---|---|---|---|---|---|---|---|
| 1777148730 | 12.78° C | 47% | 1006.5 hPa | - | - | - | - |
| 1777147881 | 12.22° C | 49% | 1006.5 hPa | - | - | - | - |
| 1777147080 | 11.67° C | 50% | 1006.5 hPa | - | - | - | - |
| 1777146195 | 12.22° C | 48% | 1006.6 hPa | - | - | - | - |
| 1777145361 | 12.78° C | 46% | 1006.8 hPa | - | - | - | - |
| 1777144513 | 12.78° C | 44% | 1007 hPa | - | - | - | - |
| 1777143630 | 12.78° C | 46% | 1006.9 hPa | - | - | - | - |
| 1777142870 | 13.33° C | 44% | 1007.1 hPa | - | - | - | - |
| 1777142060 | 13.89° C | 43% | 1007.2 hPa | - | - | - | - |
| 1777141255 | 13.89° C | 42% | 1007.3 hPa | - | - | - | - |
| 1777140460 | 14.44° C | 42% | 1007.2 hPa | - | - | - | - |
| 1777139620 | 14.44° C | 41% | 1007.3 hPa | - | - | - | - |
| 1777138855 | 15° C | 39% | 1007.3 hPa | - | - | - | - |
| 1777138030 | 15.56° C | 38% | 1007.5 hPa | - | - | - | - |
| 1777137240 | 16.11° C | 37% | 1007.5 hPa | - | - | - | - |
| 1777136345 | 16.11° C | 35% | 1007.7 hPa | - | - | - | - |
| 1777135461 | 16.67° C | 35% | 1007.6 hPa | - | - | - | - |
| 1777134619 | 17.22° C | 32% | 1007.7 hPa | - | - | - | - |
| 1777133880 | 17.22° C | 31% | 1007.6 hPa | - | - | - | - |
| 1777133020 | 17.78° C | 29% | 1007.5 hPa | - | - | - | - |
| 1777132275 | 17.78° C | 29% | 1007.6 hPa | - | - | - | - |
| 1777131480 | 17.78° C | 29% | 1007.6 hPa | - | - | - | - |
| 1777130641 | 18.33° C | 28% | 1007.6 hPa | - | - | - | - |
| 1777129915 | 18.33° C | 30% | 1007.5 hPa | - | - | - | - |
| 1777129144 | 18.33° C | 30% | 1007.7 hPa | - | - | - | - |
* Rain since midnight (hover to see other rain measurements)
** Current wind speed in m/s (hover to see current wind gust speed)